createdAt,value
2022-12-24T00:00:25.201Z,94686.41
2022-12-24T00:02:51.556Z,94690.81
2022-12-24T00:05:17.834Z,94684.88
2022-12-24T00:07:44.112Z,94684.88
2022-12-24T00:10:10.377Z,94685.69
2022-12-24T00:12:36.621Z,94674.81
2022-12-24T00:15:02.918Z,94672.78
2022-12-24T00:17:29.160Z,94674.66
2022-12-24T00:19:55.412Z,94664.09
2022-12-24T00:22:21.911Z,94663.75
2022-12-24T00:24:48.197Z,94672.75
2022-12-24T00:27:14.466Z,94679.75
2022-12-24T00:29:40.726Z,94673.69
2022-12-24T00:32:06.989Z,94685.66
2022-12-24T00:34:33.235Z,94669.38
2022-12-24T00:36:59.525Z,94654.91
2022-12-24T00:39:25.784Z,94660.94
2022-12-24T00:41:52.045Z,94672.03
2022-12-24T00:44:18.295Z,94673.88
2022-12-24T00:46:44.597Z,94680.31
2022-12-24T00:49:10.928Z,94684.38
2022-12-24T00:51:37.348Z,94683.78
2022-12-24T00:54:03.714Z,94679.44
2022-12-24T00:56:29.976Z,94679.78
2022-12-24T00:58:56.226Z,94681.06
2022-12-24T01:01:22.603Z,94696.66
2022-12-24T01:03:49.015Z,94690.16
2022-12-24T01:06:15.343Z,94687.00
2022-12-24T01:08:41.628Z,94697.81
2022-12-24T01:11:07.901Z,94699.44
2022-12-24T01:13:34.140Z,94678.56
2022-12-24T01:16:00.431Z,94689.94
2022-12-24T01:18:26.732Z,94689.34
2022-12-24T01:20:52.992Z,94676.13
2022-12-24T01:23:19.299Z,94695.16
2022-12-24T01:25:45.546Z,94711.31
2022-12-24T01:28:11.808Z,94735.69
2022-12-24T01:30:38.089Z,94739.06
2022-12-24T01:33:04.351Z,94761.00
2022-12-24T01:35:30.587Z,94775.69
2022-12-24T01:37:56.839Z,94767.22
2022-12-24T01:40:23.073Z,94756.47
2022-12-24T01:42:49.336Z,94760.97
2022-12-24T01:45:15.586Z,94742.75
2022-12-24T01:47:41.857Z,94732.28
2022-12-24T01:50:08.115Z,94735.41
2022-12-24T01:52:34.390Z,94742.59
2022-12-24T01:55:00.651Z,94760.25
2022-12-24T01:57:27.096Z,94772.34
2022-12-24T01:59:53.456Z,94764.25
2022-12-24T02:02:19.890Z,94768.47
2022-12-24T02:04:46.260Z,94766.47
2022-12-24T02:07:12.533Z,94766.47
2022-12-24T02:09:38.781Z,94766.69
2022-12-24T02:12:05.021Z,94768.38
2022-12-24T02:14:31.285Z,94765.38
2022-12-24T02:16:57.555Z,94767.31
2022-12-24T02:19:23.809Z,94779.19
2022-12-24T02:21:50.068Z,94773.06
2022-12-24T02:24:16.352Z,94781.06
2022-12-24T02:26:42.623Z,94776.28
2022-12-24T02:29:08.875Z,94784.94
2022-12-24T02:31:35.222Z,94784.25
2022-12-24T02:34:01.482Z,94791.53
2022-12-24T02:36:27.722Z,94800.53
2022-12-24T02:38:54.005Z,94791.84
2022-12-24T02:41:20.253Z,94784.66
2022-12-24T02:43:46.519Z,94773.44
2022-12-24T02:46:12.881Z,94783.16
2022-12-24T02:48:39.189Z,94788.19
2022-12-24T02:51:05.431Z,94780.41
2022-12-24T02:53:31.686Z,94771.59
2022-12-24T02:55:57.962Z,94763.47
2022-12-24T02:58:24.198Z,94762.53
2022-12-24T03:00:50.515Z,94777.94
2022-12-24T03:03:16.797Z,94780.91
2022-12-24T03:05:43.055Z,94782.56
2022-12-24T03:08:09.416Z,94772.09
2022-12-24T03:10:35.687Z,94768.56
2022-12-24T03:13:01.945Z,94769.69
2022-12-24T03:15:28.213Z,94770.50
2022-12-24T03:17:54.490Z,94774.88
2022-12-24T03:20:20.758Z,94768.97
2022-12-24T03:22:47.001Z,94764.25
2022-12-24T03:25:13.268Z,94762.91
2022-12-24T03:27:39.528Z,94772.75
2022-12-24T03:30:05.787Z,94762.28
2022-12-24T03:32:32.034Z,94764.75
2022-12-24T03:34:58.269Z,94757.47
2022-12-24T03:37:24.513Z,94772.97
2022-12-24T03:39:50.785Z,94778.66
2022-12-24T03:42:17.029Z,94781.09
2022-12-24T03:44:43.374Z,94783.25
2022-12-24T03:47:09.641Z,94778.22
2022-12-24T03:49:35.890Z,94782.00
2022-12-24T03:52:02.169Z,94796.72
2022-12-24T03:54:28.425Z,94789.56
2022-12-24T03:56:54.667Z,94774.28
2022-12-24T03:59:20.903Z,94779.03
2022-12-24T04:01:47.319Z,94782.59
2022-12-24T04:04:13.710Z,94778.53
2022-12-24T04:06:39.944Z,94777.22
2022-12-24T04:09:06.172Z,94773.06
2022-12-24T04:11:32.437Z,94775.41
2022-12-24T04:13:58.712Z,94774.88
2022-12-24T04:16:25.006Z,94789.06
2022-12-24T04:18:51.373Z,94785.97
2022-12-24T04:21:17.620Z,94782.44
2022-12-24T04:23:43.870Z,94784.25
2022-12-24T04:26:10.135Z,94783.44
2022-12-24T04:28:36.377Z,94767.50
2022-12-24T04:31:02.643Z,94764.88
2022-12-24T04:33:28.901Z,94763.72
2022-12-24T04:35:55.152Z,94763.00
2022-12-24T04:38:21.416Z,94755.81
2022-12-24T04:40:47.662Z,94753.16
2022-12-24T04:43:13.922Z,94753.69
2022-12-24T04:45:40.189Z,94754.66
2022-12-24T04:48:06.471Z,94753.50
2022-12-24T04:50:32.732Z,94752.81
2022-12-24T04:52:58.981Z,94753.88
2022-12-24T04:55:25.237Z,94763.91
2022-12-24T04:57:53.278Z,94763.00
2022-12-24T05:00:19.719Z,94757.81
2022-12-24T05:02:46.004Z,94766.34
2022-12-24T05:05:12.288Z,94748.16
2022-12-24T05:07:38.518Z,94764.63
2022-12-24T05:10:04.772Z,94764.72
2022-12-24T05:12:31.012Z,94761.09
2022-12-24T05:14:58.314Z,94765.16
2022-12-24T05:17:24.549Z,94760.25
2022-12-24T05:19:50.782Z,94755.25
2022-12-24T05:22:17.030Z,94769.09
2022-12-24T05:24:43.295Z,94784.91
2022-12-24T05:27:09.548Z,94793.25
2022-12-24T05:29:35.813Z,94783.34
2022-12-24T05:32:02.078Z,94790.81
2022-12-24T05:34:28.315Z,94813.19
2022-12-24T05:36:54.566Z,94807.91
2022-12-24T05:39:20.834Z,94805.16
2022-12-24T05:41:47.074Z,94801.63
2022-12-24T05:44:13.339Z,94791.41
2022-12-24T05:46:39.690Z,94780.81
2022-12-24T05:49:06.081Z,94795.09
2022-12-24T05:51:32.442Z,94796.88
2022-12-24T05:53:58.710Z,94804.13
2022-12-24T05:56:24.959Z,94796.44
2022-12-24T05:58:51.217Z,94807.22
2022-12-24T06:01:17.621Z,94796.78
2022-12-24T06:03:43.999Z,94805.66
2022-12-24T06:06:10.245Z,94809.50
2022-12-24T06:08:36.499Z,94798.78
2022-12-24T06:11:02.747Z,94800.34
2022-12-24T06:13:28.999Z,94811.50
2022-12-24T06:15:55.320Z,94812.75
2022-12-24T06:18:21.646Z,94811.34
2022-12-24T06:20:47.913Z,94823.41
2022-12-24T06:23:14.154Z,94820.81
2022-12-24T06:25:40.580Z,94815.59
2022-12-24T06:28:06.859Z,94819.66
2022-12-24T06:30:33.109Z,94822.91
2022-12-24T06:32:59.357Z,94806.06
2022-12-24T06:35:25.609Z,94806.06
2022-12-24T06:37:51.880Z,94814.03
2022-12-24T06:40:18.118Z,94824.47
2022-12-24T06:42:44.369Z,94817.63
2022-12-24T06:45:10.718Z,94831.28
2022-12-24T06:47:36.949Z,94832.94
2022-12-24T06:50:03.230Z,94818.94
2022-12-24T06:52:29.468Z,94803.72
2022-12-24T06:54:55.714Z,94798.97
2022-12-24T06:57:21.975Z,94795.19
2022-12-24T06:59:48.213Z,94797.81
2022-12-24T07:02:14.740Z,94796.69
2022-12-24T07:04:41.059Z,94798.50
2022-12-24T07:07:07.294Z,94803.16
2022-12-24T07:09:33.547Z,94794.06
2022-12-24T07:11:59.803Z,94792.13
2022-12-24T07:14:26.053Z,94805.94
2022-12-24T07:16:58.516Z,94821.84
2022-12-24T07:19:25.305Z,94821.59
2022-12-24T07:21:51.701Z,94819.28
2022-12-24T07:24:17.974Z,94809.75
2022-12-24T07:26:44.208Z,94807.94
2022-12-24T07:29:10.463Z,94790.50
2022-12-24T07:31:36.752Z,94787.69
2022-12-24T07:34:03.056Z,94792.50
2022-12-24T07:36:29.312Z,94795.41
2022-12-24T07:38:55.574Z,94788.31
2022-12-24T07:41:21.817Z,94778.59
2022-12-24T07:43:48.067Z,94782.91
2022-12-24T07:46:14.339Z,94799.66
2022-12-24T07:48:40.647Z,94805.41
2022-12-24T07:51:06.901Z,94801.59
2022-12-24T07:53:33.166Z,94806.88
2022-12-24T07:55:59.439Z,94817.88
2022-12-24T07:58:25.687Z,94827.69
2022-12-24T08:00:51.966Z,94838.13
2022-12-24T08:03:18.333Z,94833.84
2022-12-24T08:05:44.721Z,94840.41
2022-12-24T08:08:10.980Z,94828.41
2022-12-24T08:10:37.241Z,94836.47
2022-12-24T08:13:03.501Z,94831.91
2022-12-24T08:15:29.745Z,94827.47
2022-12-24T08:17:55.974Z,94832.06
2022-12-24T08:20:22.224Z,94836.19
2022-12-24T08:22:48.488Z,94843.00
2022-12-24T08:25:14.736Z,94836.78
2022-12-24T08:27:40.991Z,94832.53
2022-12-24T08:30:07.237Z,94848.97
2022-12-24T08:32:33.492Z,94840.78
2022-12-24T08:34:59.735Z,94849.25
2022-12-24T08:37:26.005Z,94853.31
2022-12-24T08:39:52.255Z,94858.41
2022-12-24T08:42:18.528Z,94864.44
2022-12-24T08:44:44.803Z,94860.25
2022-12-24T08:47:11.037Z,94853.19
2022-12-24T08:49:37.290Z,94858.63
2022-12-24T08:52:03.561Z,94865.81
2022-12-24T08:54:29.829Z,94859.97
2022-12-24T08:56:56.062Z,94861.78
2022-12-24T08:59:22.302Z,94855.88
2022-12-24T09:01:48.756Z,94870.25
2022-12-24T09:04:15.116Z,94867.75
2022-12-24T09:06:41.380Z,94872.88
2022-12-24T09:09:07.647Z,94872.31
2022-12-24T09:11:34.015Z,94863.59
2022-12-24T09:14:00.262Z,94865.72
2022-12-24T09:16:26.560Z,94852.34
2022-12-24T09:18:52.834Z,94847.00
2022-12-24T09:21:19.193Z,94848.19
2022-12-24T09:23:45.449Z,94853.06
2022-12-24T09:26:11.695Z,94861.44
2022-12-24T09:28:37.927Z,94859.91
2022-12-24T09:31:04.182Z,94849.44
2022-12-24T09:33:30.543Z,94847.44
2022-12-24T09:35:56.782Z,94851.53
2022-12-24T09:38:23.046Z,94841.81
2022-12-24T09:40:49.293Z,94860.09
2022-12-24T09:43:15.571Z,94868.44
2022-12-24T09:45:41.829Z,94866.28
2022-12-24T09:48:09.032Z,94854.44
2022-12-24T09:50:35.283Z,94867.91
2022-12-24T09:53:01.546Z,94860.63
2022-12-24T09:55:27.807Z,94854.53
2022-12-24T09:57:54.065Z,94853.16
2022-12-24T10:00:20.335Z,94862.25
2022-12-24T10:02:46.946Z,94873.19
2022-12-24T10:05:13.442Z,94886.19
2022-12-24T10:07:39.705Z,94866.91
2022-12-24T10:10:05.964Z,94865.81
2022-12-24T10:12:32.221Z,94866.44
2022-12-24T10:14:58.458Z,94870.66
2022-12-24T10:17:24.703Z,94861.97
2022-12-24T10:19:50.940Z,94858.53
2022-12-24T10:22:17.212Z,94865.53
2022-12-24T10:24:49.892Z,94859.09
2022-12-24T10:27:16.708Z,94859.25
2022-12-24T10:29:42.939Z,94854.81
2022-12-24T10:32:09.204Z,94851.09
2022-12-24T10:34:35.451Z,94850.09
2022-12-24T10:37:01.691Z,94849.63
2022-12-24T10:39:28.036Z,94846.81
2022-12-24T10:41:54.277Z,94846.16
2022-12-24T10:44:20.523Z,94861.81
2022-12-24T10:46:46.840Z,94859.34
2022-12-24T10:49:13.265Z,94865.63
2022-12-24T10:51:39.504Z,94862.16
2022-12-24T10:54:05.751Z,94870.75
2022-12-24T10:56:32.003Z,94866.28
2022-12-24T10:58:58.250Z,94865.09
2022-12-24T11:01:24.567Z,94860.25
2022-12-24T11:03:50.912Z,94854.44
2022-12-24T11:06:17.183Z,94839.44
2022-12-24T11:08:43.427Z,94827.88
2022-12-24T11:11:09.669Z,94828.50
2022-12-24T11:13:37.818Z,94828.69
2022-12-24T11:16:04.465Z,94833.63
2022-12-24T11:18:30.785Z,94836.97
2022-12-24T11:20:57.033Z,94828.41
2022-12-24T11:23:23.277Z,94828.03
2022-12-24T11:25:49.541Z,94830.03
2022-12-24T11:28:15.829Z,94832.94
2022-12-24T11:30:42.142Z,94831.13
2022-12-24T11:33:08.540Z,94823.00
2022-12-24T11:35:34.795Z,94828.13
2022-12-24T11:38:01.042Z,94817.38
2022-12-24T11:40:27.284Z,94820.66
2022-12-24T11:42:53.534Z,94808.47
2022-12-24T11:45:19.776Z,94820.25
2022-12-24T11:47:46.030Z,94820.09
2022-12-24T11:50:18.629Z,94819.09
2022-12-24T11:52:45.212Z,94812.44
2022-12-24T11:55:15.955Z,94817.69
2022-12-24T11:57:42.912Z,94823.44
2022-12-24T12:00:09.175Z,94823.25
2022-12-24T12:02:35.566Z,94821.78
2022-12-24T12:05:01.863Z,94814.25
2022-12-24T12:07:28.110Z,94812.22
2022-12-24T12:09:54.362Z,94819.34
2022-12-24T12:12:20.645Z,94819.72
2022-12-24T12:14:46.909Z,94818.81
2022-12-24T12:17:13.184Z,94813.06
2022-12-24T12:19:39.455Z,94818.00
2022-12-24T12:22:05.722Z,94819.56
2022-12-24T12:24:32.672Z,94809.91
2022-12-24T12:26:59.012Z,94814.56
2022-12-24T12:29:25.257Z,94818.03
2022-12-24T12:31:51.598Z,94811.94
2022-12-24T12:34:17.984Z,94811.56
2022-12-24T12:36:44.251Z,94818.03
2022-12-24T12:39:10.505Z,94812.84
2022-12-24T12:41:36.757Z,94813.13
2022-12-24T12:44:03.014Z,94815.66
2022-12-24T12:46:29.282Z,94812.31
2022-12-24T12:49:01.990Z,94814.31
2022-12-24T12:51:28.896Z,94805.31
2022-12-24T12:53:55.151Z,94810.13
2022-12-24T12:56:21.420Z,94807.47
2022-12-24T12:58:47.674Z,94800.75
2022-12-24T13:01:14.063Z,94808.19
2022-12-24T13:03:40.433Z,94805.25
2022-12-24T13:06:06.699Z,94807.25
2022-12-24T13:08:32.950Z,94803.91
2022-12-24T13:10:59.212Z,94804.50
2022-12-24T13:13:25.449Z,94795.47
2022-12-24T13:15:51.748Z,94801.84
2022-12-24T13:18:18.009Z,94804.81
2022-12-24T13:20:44.268Z,94808.81
2022-12-24T13:23:10.519Z,94809.81
2022-12-24T13:25:36.775Z,94809.81
2022-12-24T13:28:03.063Z,94813.03
2022-12-24T13:30:29.342Z,94808.88
2022-12-24T13:32:55.685Z,94804.41
2022-12-24T13:35:21.954Z,94809.69
2022-12-24T13:37:48.193Z,94806.59
2022-12-24T13:40:14.537Z,94802.59
2022-12-24T13:42:40.976Z,94800.53
2022-12-24T13:45:07.260Z,94815.06
2022-12-24T13:47:33.542Z,94813.44
2022-12-24T13:49:59.780Z,94816.44
2022-12-24T13:52:26.036Z,94808.25
2022-12-24T13:54:52.296Z,94817.44
2022-12-24T13:57:18.552Z,94814.81
2022-12-24T13:59:44.801Z,94805.78
2022-12-24T14:02:11.160Z,94798.72
2022-12-24T14:04:37.515Z,94803.59
2022-12-24T14:07:03.761Z,94800.44
2022-12-24T14:09:30.022Z,94802.78
2022-12-24T14:11:56.292Z,94806.63
2022-12-24T14:14:22.566Z,94812.63
2022-12-24T14:16:48.935Z,94814.53
2022-12-24T14:19:15.275Z,94822.72
2022-12-24T14:21:41.525Z,94811.78
2022-12-24T14:24:07.782Z,94814.16
2022-12-24T14:26:34.025Z,94816.06
2022-12-24T14:29:00.294Z,94813.59
2022-12-24T14:31:26.658Z,94824.97
2022-12-24T14:33:52.930Z,94826.34
2022-12-24T14:36:19.170Z,94819.88
2022-12-24T14:38:45.407Z,94823.97
2022-12-24T14:41:11.675Z,94825.44
2022-12-24T14:43:37.932Z,94828.34
2022-12-24T14:46:04.245Z,94822.31
2022-12-24T14:48:30.501Z,94825.22
2022-12-24T14:50:56.749Z,94827.69
2022-12-24T14:53:22.999Z,94821.78
2022-12-24T14:55:49.270Z,94817.25
2022-12-24T14:58:15.520Z,94822.69
2022-12-24T15:00:41.770Z,94817.88
2022-12-24T15:03:08.092Z,94818.44
2022-12-24T15:05:34.409Z,94824.84
2022-12-24T15:08:00.675Z,94828.72
2022-12-24T15:10:26.958Z,94824.41
2022-12-24T15:12:53.221Z,94831.69
2022-12-24T15:15:19.492Z,94828.16
2022-12-24T15:17:45.760Z,94829.50
2022-12-24T15:20:12.051Z,94828.38
2022-12-24T15:22:38.316Z,94829.50
2022-12-24T15:25:04.566Z,94835.56
2022-12-24T15:27:30.838Z,94828.41
2022-12-24T15:29:57.115Z,94830.22
2022-12-24T15:32:23.356Z,94821.50
2022-12-24T15:34:49.688Z,94821.84
2022-12-24T15:37:15.938Z,94807.50
2022-12-24T15:39:42.185Z,94811.31
2022-12-24T15:42:08.452Z,94812.31
2022-12-24T15:44:34.742Z,94828.81
2022-12-24T15:47:01.052Z,94831.81
2022-12-24T15:49:27.349Z,94837.91
2022-12-24T15:51:53.623Z,94842.81
2022-12-24T15:54:19.895Z,94824.22
2022-12-24T15:56:46.157Z,94840.16
2022-12-24T15:59:12.423Z,94838.84
2022-12-24T16:01:38.782Z,94846.25
2022-12-24T16:04:05.109Z,94845.97
2022-12-24T16:06:31.370Z,94848.13
2022-12-24T16:08:57.623Z,94853.63
2022-12-24T16:11:23.884Z,94844.28
2022-12-24T16:13:50.174Z,94850.72
2022-12-24T16:16:16.575Z,94850.56
2022-12-24T16:18:42.898Z,94847.81
2022-12-24T16:21:09.173Z,94857.22
2022-12-24T16:23:35.406Z,94855.41
2022-12-24T16:26:01.668Z,94850.13
2022-12-24T16:28:27.918Z,94854.22
2022-12-24T16:30:54.212Z,94845.22
2022-12-24T16:33:20.497Z,94846.88
2022-12-24T16:35:46.777Z,94852.63
2022-12-24T16:38:13.047Z,94851.63
2022-12-24T16:40:39.310Z,94847.09
2022-12-24T16:43:05.578Z,94851.63
2022-12-24T16:45:31.830Z,94845.56
2022-12-24T16:47:58.080Z,94851.00
2022-12-24T16:50:24.340Z,94861.22
2022-12-24T16:52:50.618Z,94853.75
2022-12-24T16:55:16.881Z,94848.38
2022-12-24T16:57:43.155Z,94848.19
2022-12-24T17:00:09.433Z,94853.47
2022-12-24T17:02:36.054Z,94850.75
2022-12-24T17:05:02.458Z,94855.16
2022-12-24T17:07:28.733Z,94859.47
2022-12-24T17:09:55.029Z,94862.59
2022-12-24T17:12:21.321Z,94861.25
2022-12-24T17:14:47.595Z,94867.75
2022-12-24T17:17:13.873Z,94879.59
2022-12-24T17:19:40.144Z,94873.47
2022-12-24T17:22:06.389Z,94876.72
2022-12-24T17:24:32.636Z,94898.22
2022-12-24T17:26:58.957Z,94896.78
2022-12-24T17:29:25.243Z,94886.47
2022-12-24T17:31:51.561Z,94885.72
2022-12-24T17:34:17.840Z,94877.16
2022-12-24T17:36:44.116Z,94874.78
2022-12-24T17:39:10.362Z,94886.22
2022-12-24T17:41:36.609Z,94885.78
2022-12-24T17:44:02.859Z,94884.97
2022-12-24T17:46:29.213Z,94888.22
2022-12-24T17:48:55.548Z,94900.25
2022-12-24T17:51:21.890Z,94886.97
2022-12-24T17:53:48.248Z,94880.19
2022-12-24T17:56:14.496Z,94874.75
2022-12-24T17:58:40.758Z,94879.19
2022-12-24T18:01:07.051Z,94884.28
2022-12-24T18:03:33.363Z,94879.59
2022-12-24T18:05:59.629Z,94874.03
2022-12-24T18:08:25.887Z,94870.41
2022-12-24T18:10:52.151Z,94873.34
2022-12-24T18:13:19.572Z,94874.84
2022-12-24T18:15:46.079Z,94876.16
2022-12-24T18:18:12.474Z,94875.97
2022-12-24T18:20:46.091Z,94875.81
2022-12-24T18:23:12.993Z,94864.28
2022-12-24T18:25:39.260Z,94870.72
2022-12-24T18:28:05.537Z,94868.25
2022-12-24T18:30:31.787Z,94877.25
2022-12-24T18:32:58.046Z,94868.38
2022-12-24T18:35:24.319Z,94868.84
2022-12-24T18:37:50.573Z,94870.13
2022-12-24T18:40:16.812Z,94882.78
2022-12-24T18:42:43.073Z,94878.03
2022-12-24T18:45:09.320Z,94885.09
2022-12-24T18:47:35.581Z,94894.00
2022-12-24T18:50:01.850Z,94867.09
2022-12-24T18:52:28.122Z,94882.25
2022-12-24T18:54:54.365Z,94881.25
2022-12-24T18:57:20.605Z,94888.00
2022-12-24T18:59:46.881Z,94877.34
2022-12-24T19:02:13.231Z,94886.38
2022-12-24T19:04:39.528Z,94886.56
2022-12-24T19:07:05.790Z,94888.31
2022-12-24T19:09:32.150Z,94898.25
2022-12-24T19:11:58.406Z,94892.59
2022-12-24T19:14:24.688Z,94899.09
2022-12-24T19:16:51.026Z,94891.13
2022-12-24T19:19:17.504Z,94892.31
2022-12-24T19:21:43.809Z,94896.91
2022-12-24T19:24:10.073Z,94888.38
2022-12-24T19:26:36.344Z,94899.56
2022-12-24T19:29:02.598Z,94891.31
2022-12-24T19:31:28.911Z,94897.09
2022-12-24T19:33:55.209Z,94892.47
2022-12-24T19:36:21.459Z,94892.94
2022-12-24T19:38:47.750Z,94901.94
2022-12-24T19:41:14.011Z,94900.88
2022-12-24T19:43:40.278Z,94894.34
2022-12-24T19:46:06.622Z,94892.91
2022-12-24T19:48:32.950Z,94891.91
2022-12-24T19:50:59.206Z,94885.00
2022-12-24T19:53:25.465Z,94879.56
2022-12-24T19:55:51.732Z,94883.84
2022-12-24T19:58:17.991Z,94883.47
2022-12-24T20:00:44.264Z,94895.00
2022-12-24T20:03:10.682Z,94891.53
2022-12-24T20:05:36.986Z,94907.69
2022-12-24T20:08:03.263Z,94916.34
2022-12-24T20:10:29.527Z,94907.88
2022-12-24T20:12:59.647Z,94912.44
2022-12-24T20:15:28.544Z,94915.25
2022-12-24T20:17:54.788Z,94916.25
2022-12-24T20:20:21.093Z,94913.13
2022-12-24T20:22:47.350Z,94917.38
2022-12-24T20:25:13.618Z,94921.97
2022-12-24T20:27:39.890Z,94917.81
2022-12-24T20:30:06.164Z,94911.28
2022-12-24T20:32:32.425Z,94912.59
2022-12-24T20:34:58.703Z,94909.97
2022-12-24T20:37:24.944Z,94897.97
2022-12-24T20:39:51.233Z,94894.19
2022-12-24T20:42:17.488Z,94901.25
2022-12-24T20:44:43.769Z,94907.81
2022-12-24T20:47:10.032Z,94920.59
2022-12-24T20:49:36.281Z,94929.44
2022-12-24T20:52:02.555Z,94924.69
2022-12-24T20:54:28.814Z,94926.25
2022-12-24T20:56:57.784Z,94925.44
2022-12-24T20:59:25.261Z,94927.41
2022-12-24T21:01:51.650Z,94922.47
2022-12-24T21:04:18.093Z,94927.91
2022-12-24T21:06:44.361Z,94911.94
2022-12-24T21:09:10.648Z,94922.50
2022-12-24T21:11:37.010Z,94927.31
2022-12-24T21:14:03.263Z,94930.00
2022-12-24T21:16:29.704Z,94920.19
2022-12-24T21:18:55.976Z,94931.56
2022-12-24T21:21:22.254Z,94922.50
2022-12-24T21:23:48.505Z,94924.50
2022-12-24T21:26:14.761Z,94922.50
2022-12-24T21:28:41.029Z,94925.78
2022-12-24T21:31:07.342Z,94930.06
2022-12-24T21:33:38.118Z,94940.25
2022-12-24T21:36:04.815Z,94933.66
2022-12-24T21:38:31.061Z,94929.97
2022-12-24T21:40:57.329Z,94931.97
2022-12-24T21:43:23.582Z,94932.31
2022-12-24T21:45:49.868Z,94934.63
2022-12-24T21:48:16.172Z,94933.66
2022-12-24T21:50:42.447Z,94930.50
2022-12-24T21:53:08.736Z,94932.66
2022-12-24T21:55:35.010Z,94933.81
2022-12-24T21:58:01.262Z,94934.47
2022-12-24T22:00:27.544Z,94933.31
2022-12-24T22:02:53.915Z,94939.44
2022-12-24T22:05:20.283Z,94954.84
2022-12-24T22:07:46.603Z,94948.03
2022-12-24T22:10:12.877Z,94958.91
2022-12-24T22:12:39.227Z,94951.81
2022-12-24T22:15:05.474Z,94949.22
2022-12-24T22:17:31.736Z,94952.03
2022-12-24T22:19:58.103Z,94950.22
2022-12-24T22:22:24.367Z,94950.06
2022-12-24T22:24:50.667Z,94949.09
2022-12-24T22:27:16.964Z,94949.44
2022-12-24T22:29:43.237Z,94952.88
2022-12-24T22:32:09.510Z,94950.91
2022-12-24T22:34:35.779Z,94948.94
2022-12-24T22:37:02.035Z,94942.19
2022-12-24T22:39:28.316Z,94941.72
2022-12-24T22:41:54.594Z,94947.44
2022-12-24T22:44:20.856Z,94942.19
2022-12-24T22:46:47.182Z,94945.97
2022-12-24T22:49:13.471Z,94940.25
2022-12-24T22:51:39.745Z,94950.41
2022-12-24T22:54:06.025Z,94946.63
2022-12-24T22:56:38.811Z,94944.34
2022-12-24T22:59:07.155Z,94946.16
2022-12-24T23:01:33.519Z,94944.00
2022-12-24T23:03:59.971Z,94940.53
2022-12-24T23:06:26.371Z,94947.97
2022-12-24T23:08:52.624Z,94937.25
2022-12-24T23:11:18.904Z,94940.53
2022-12-24T23:13:45.156Z,94939.53
2022-12-24T23:16:11.449Z,94937.25
2022-12-24T23:18:37.716Z,94935.97
2022-12-24T23:21:03.989Z,94938.72
2022-12-24T23:23:36.478Z,94939.91
2022-12-24T23:26:03.279Z,94933.84
2022-12-24T23:28:29.534Z,94932.38
2022-12-24T23:30:55.811Z,94933.84
2022-12-24T23:33:22.197Z,94930.22
2022-12-24T23:35:48.478Z,94931.41
2022-12-24T23:38:14.752Z,94927.13
2022-12-24T23:40:41.017Z,94922.50
2022-12-24T23:43:07.292Z,94921.88
2022-12-24T23:45:33.555Z,94927.63
2022-12-24T23:47:59.821Z,94935.50
2022-12-24T23:50:26.086Z,94931.25
2022-12-24T23:52:52.567Z,94928.78
2022-12-24T23:55:18.880Z,94920.91
2022-12-24T23:57:45.152Z,94918.28
